createdAt,value
2017-06-03T00:01:58.156Z,67.60
2017-06-03T00:04:25.674Z,68.20
2017-06-03T00:06:53.189Z,68.00
2017-06-03T00:09:20.731Z,68.70
2017-06-03T00:11:49.022Z,69.90
2017-06-03T00:14:17.322Z,70.20
2017-06-03T00:16:44.843Z,70.00
2017-06-03T00:19:12.362Z,70.20
2017-06-03T00:21:39.893Z,69.10
2017-06-03T00:24:07.418Z,69.10
2017-06-03T00:26:34.939Z,68.40
2017-06-03T00:29:02.481Z,67.70
2017-06-03T00:31:30.004Z,67.60
2017-06-03T00:33:57.526Z,67.40
2017-06-03T00:36:25.071Z,67.60
2017-06-03T00:38:52.594Z,68.10
2017-06-03T00:41:20.873Z,68.00
2017-06-03T00:43:49.182Z,68.70
2017-06-03T00:46:16.702Z,68.60
2017-06-03T00:48:44.250Z,69.30
2017-06-03T00:51:11.767Z,69.70
2017-06-03T00:53:39.316Z,69.80
2017-06-03T00:56:06.861Z,69.70
2017-06-03T00:58:35.150Z,70.70
2017-06-03T01:01:02.698Z,70.60
2017-06-03T01:03:30.977Z,70.90
2017-06-03T01:05:59.270Z,70.80
2017-06-03T01:08:26.805Z,70.80
2017-06-03T01:10:55.095Z,72.00
2017-06-03T01:13:23.401Z,71.80
2017-06-03T01:15:50.916Z,71.70
2017-06-03T01:18:18.429Z,71.60
2017-06-03T01:20:45.959Z,71.80
2017-06-03T01:23:13.473Z,73.70
2017-06-03T01:25:41.022Z,73.40
2017-06-03T01:28:08.541Z,73.80
2017-06-03T01:30:36.070Z,74.10
2017-06-03T01:33:03.609Z,74.10
2017-06-03T01:35:31.129Z,74.20
2017-06-03T01:37:58.670Z,73.70
2017-06-03T01:40:26.952Z,74.60
2017-06-03T01:42:55.240Z,74.40
2017-06-03T01:45:22.782Z,74.30
2017-06-03T01:47:51.062Z,75.60
2017-06-03T01:50:19.369Z,76.10
2017-06-03T01:52:46.886Z,76.10
2017-06-03T01:55:14.404Z,76.00
2017-06-03T01:57:41.943Z,76.20
2017-06-03T02:00:09.473Z,76.50
2017-06-03T02:02:37.782Z,78.10
2017-06-03T02:05:05.858Z,78.00
2017-06-03T02:07:33.533Z,78.50
2017-06-03T02:10:01.074Z,78.40
2017-06-03T02:12:28.603Z,79.10
2017-06-03T02:14:56.149Z,78.90
2017-06-03T02:17:23.672Z,79.00
2017-06-03T02:19:51.190Z,79.50
2017-06-03T02:22:19.493Z,80.20
2017-06-03T02:24:47.008Z,80.00
2017-06-03T02:27:14.563Z,80.50
2017-06-03T02:29:42.077Z,80.50
2017-06-03T02:32:09.597Z,80.50
2017-06-03T02:34:37.129Z,80.60
2017-06-03T02:37:04.641Z,81.00
2017-06-03T02:39:32.959Z,81.40
2017-06-03T02:42:00.470Z,81.30
2017-06-03T02:44:28.754Z,82.00
2017-06-03T02:46:57.057Z,82.20
2017-06-03T02:49:24.578Z,82.10
2017-06-03T02:51:52.353Z,82.30
2017-06-03T02:54:20.642Z,83.40
2017-06-03T02:56:48.165Z,83.40
2017-06-03T02:59:15.704Z,83.40
2017-06-03T03:01:43.226Z,83.80
2017-06-03T03:06:47.860Z,84.50
2017-06-03T03:09:16.203Z,83.80
2017-06-03T03:11:43.732Z,83.80
2017-06-03T03:14:11.258Z,83.90
2017-06-03T03:16:38.802Z,84.30
2017-06-03T03:19:06.321Z,84.20
2017-06-03T03:21:33.874Z,83.90
2017-06-03T03:24:01.406Z,84.20
2017-06-03T03:26:29.699Z,85.10
2017-06-03T03:28:57.242Z,85.10
2017-06-03T03:31:25.536Z,84.30
2017-06-03T03:33:53.086Z,84.20
2017-06-03T03:36:20.615Z,84.50
2017-06-03T03:38:48.134Z,84.20
2017-06-03T03:41:15.681Z,83.60
2017-06-03T03:43:43.207Z,84.30
2017-06-03T03:46:11.557Z,83.00
2017-06-03T03:48:39.092Z,82.40
2017-06-03T03:51:06.618Z,81.80
2017-06-03T03:53:34.926Z,79.80
2017-06-03T03:56:02.453Z,79.70
2017-06-03T03:58:30.767Z,77.30
2017-06-03T04:00:58.295Z,77.20
2017-06-03T04:03:26.589Z,75.90
2017-06-03T04:05:54.147Z,75.90
2017-06-03T04:08:21.666Z,75.50
2017-06-03T04:10:49.229Z,74.60
2017-06-03T04:13:16.753Z,74.30
2017-06-03T04:15:44.280Z,74.50
2017-06-03T04:18:11.817Z,73.70
2017-06-03T04:20:39.333Z,73.40
2017-06-03T04:23:06.884Z,71.80
2017-06-03T04:25:34.406Z,70.60
2017-06-03T04:28:02.699Z,55.40
2017-06-03T04:30:30.242Z,55.30
2017-06-03T04:32:58.544Z,44.70
2017-06-03T04:35:26.110Z,44.50
2017-06-03T04:37:53.643Z,40.90
2017-06-03T04:40:21.944Z,35.00
2017-06-03T04:42:49.493Z,34.90
2017-06-03T04:45:17.025Z,32.70
2017-06-03T04:47:44.593Z,30.90
2017-06-03T04:50:12.889Z,28.70
2017-06-03T04:52:41.185Z,27.60
2017-06-03T04:55:08.730Z,27.60
2017-06-03T04:57:37.014Z,26.00
2017-06-03T05:00:04.570Z,25.90
2017-06-03T05:02:32.858Z,25.40
2017-06-03T05:05:00.386Z,25.40
2017-06-03T05:07:27.937Z,24.70
2017-06-03T05:09:55.465Z,24.30
2017-06-03T05:12:23.021Z,24.80
2017-06-03T05:14:50.545Z,24.10
2017-06-03T05:17:18.834Z,22.30
2017-06-03T05:19:46.382Z,22.10
2017-06-03T05:22:14.682Z,22.20
2017-06-03T05:24:42.242Z,22.10
2017-06-03T05:27:09.773Z,21.90
2017-06-03T05:29:38.070Z,20.50
2017-06-03T05:32:05.611Z,20.50
2017-06-03T05:34:33.905Z,19.80
2017-06-03T05:37:01.458Z,19.80
2017-06-03T05:39:29.749Z,20.90
2017-06-03T05:41:57.279Z,20.80
2017-06-03T05:44:24.826Z,21.00
2017-06-03T05:46:52.353Z,20.80
2017-06-03T05:49:19.922Z,20.80
2017-06-03T05:51:47.477Z,20.00
2017-06-03T05:54:15.001Z,19.40
2017-06-03T05:56:43.317Z,18.80
2017-06-03T05:59:10.838Z,18.70
2017-06-03T06:01:39.161Z,16.70
2017-06-03T06:04:06.681Z,16.70
2017-06-03T06:06:34.974Z,16.50
2017-06-03T06:09:02.510Z,16.40
2017-06-03T06:11:30.807Z,19.70
2017-06-03T06:13:58.363Z,19.20
2017-06-03T06:16:25.890Z,21.50
2017-06-03T06:18:53.423Z,22.20
2017-06-03T06:21:20.974Z,21.40
2017-06-03T06:23:48.579Z,20.70
2017-06-03T06:26:16.129Z,20.80
2017-06-03T06:28:43.658Z,21.90
2017-06-03T06:31:11.185Z,21.30
2017-06-03T06:33:39.493Z,19.40
2017-06-03T06:38:44.232Z,19.70
2017-06-03T06:41:11.749Z,20.30
2017-06-03T06:43:39.282Z,21.60
2017-06-03T06:46:06.822Z,22.20
2017-06-03T06:48:34.342Z,24.30
2017-06-03T06:51:02.667Z,26.50
2017-06-03T06:53:30.193Z,26.40
2017-06-03T06:55:58.477Z,27.50
2017-06-03T06:58:26.018Z,27.50
2017-06-03T07:00:54.310Z,29.70
2017-06-03T07:03:22.618Z,28.90
2017-06-03T07:05:50.142Z,28.90
2017-06-03T07:08:22.146Z,30.10
2017-06-03T07:10:49.679Z,30.10
2017-06-03T07:13:17.207Z,31.00
2017-06-03T07:15:44.762Z,32.20
2017-06-03T07:18:12.298Z,33.60
2017-06-03T07:20:39.856Z,33.20
2017-06-03T07:23:07.509Z,34.50
2017-06-03T07:25:35.047Z,35.30
2017-06-03T07:28:02.602Z,36.50
2017-06-03T07:30:30.891Z,36.60
2017-06-03T07:32:59.345Z,36.60
2017-06-03T07:35:27.637Z,34.50
2017-06-03T07:37:55.927Z,32.80
2017-06-03T07:40:23.486Z,32.70
2017-06-03T07:42:51.049Z,31.20
2017-06-03T07:45:18.599Z,30.40
2017-06-03T07:47:46.130Z,30.10
2017-06-03T07:50:13.665Z,30.90
2017-06-03T07:52:41.240Z,33.60
2017-06-03T07:55:08.954Z,36.20
2017-06-03T07:57:36.506Z,34.90
2017-06-03T08:00:04.809Z,31.10
2017-06-03T08:02:32.333Z,31.10
2017-06-03T08:05:00.654Z,31.30
2017-06-03T08:07:28.178Z,31.10
2017-06-03T08:09:56.489Z,28.80
2017-06-03T08:12:24.021Z,28.80
2017-06-03T08:14:53.331Z,27.50
2017-06-03T08:17:20.878Z,27.40
2017-06-03T08:19:50.570Z,26.80
2017-06-03T08:22:18.118Z,26.80
2017-06-03T08:24:45.661Z,25.90
2017-06-03T08:27:13.189Z,26.10
2017-06-03T08:29:40.738Z,27.80
2017-06-03T08:32:09.028Z,26.00
2017-06-03T08:34:36.606Z,25.90
2017-06-03T08:37:04.126Z,25.90
2017-06-03T08:39:32.421Z,26.40
2017-06-03T08:41:59.963Z,26.40
2017-06-03T08:44:28.263Z,26.60
2017-06-03T08:46:55.818Z,26.50
2017-06-03T08:49:24.106Z,25.90
2017-06-03T08:51:51.753Z,25.90
2017-06-03T08:54:20.057Z,26.90
2017-06-03T08:56:47.576Z,26.80
2017-06-03T08:59:15.119Z,26.60
2017-06-03T09:01:42.642Z,25.90
2017-06-03T09:04:10.170Z,25.10
2017-06-03T09:06:38.481Z,24.70
2017-06-03T09:09:06.078Z,24.70
2017-06-03T09:11:33.642Z,25.10
2017-06-03T09:14:01.180Z,24.80
2017-06-03T09:16:28.694Z,24.70
2017-06-03T09:18:57.005Z,25.00
2017-06-03T09:21:24.530Z,25.00
2017-06-03T09:23:52.845Z,26.90
2017-06-03T09:26:20.371Z,26.90
2017-06-03T09:28:48.686Z,28.20
2017-06-03T09:31:16.246Z,28.10
2017-06-03T09:33:43.769Z,27.00
2017-06-03T09:36:12.087Z,26.10
2017-06-03T09:38:39.619Z,26.10
2017-06-03T09:41:08.024Z,28.90
2017-06-03T09:43:35.538Z,28.80
2017-06-03T09:46:03.054Z,28.80
2017-06-03T09:48:30.602Z,27.00
2017-06-03T09:50:58.125Z,26.80
2017-06-03T09:53:26.425Z,27.30
2017-06-03T09:55:53.956Z,27.30
2017-06-03T09:58:21.477Z,27.20
2017-06-03T10:00:49.010Z,26.60
2017-06-03T10:03:16.537Z,27.50
2017-06-03T10:05:44.069Z,26.40
2017-06-03T10:08:11.587Z,26.10
2017-06-03T10:10:39.109Z,24.00
2017-06-03T10:13:06.646Z,23.10
2017-06-03T10:15:34.163Z,23.30
2017-06-03T10:18:01.706Z,24.10
2017-06-03T10:20:29.989Z,23.50
2017-06-03T10:22:58.270Z,23.50
2017-06-03T10:25:26.578Z,24.20
2017-06-03T10:27:54.104Z,24.20
2017-06-03T10:30:22.438Z,23.80
2017-06-03T10:32:49.961Z,23.70
2017-06-03T10:35:17.479Z,23.30
2017-06-03T10:37:45.014Z,23.50
2017-06-03T10:40:12.569Z,23.10
2017-06-03T10:42:40.121Z,23.70
2017-06-03T10:45:08.404Z,23.20
2017-06-03T10:47:35.928Z,22.70
2017-06-03T10:50:04.237Z,24.10
2017-06-03T10:52:31.746Z,24.00
2017-06-03T10:54:59.286Z,22.00
2017-06-03T10:57:26.806Z,21.80
2017-06-03T10:59:54.367Z,21.70
2017-06-03T11:02:21.898Z,21.70
2017-06-03T11:04:50.185Z,23.10
2017-06-03T11:07:18.497Z,23.70
2017-06-03T11:09:46.017Z,23.70
2017-06-03T11:12:14.305Z,22.50
2017-06-03T11:14:42.609Z,22.00
2017-06-03T11:17:10.134Z,21.90
2017-06-03T11:19:38.442Z,22.80
2017-06-03T11:22:05.969Z,22.80
2017-06-03T11:24:33.490Z,22.10
2017-06-03T11:27:01.041Z,22.90
2017-06-03T11:29:28.572Z,22.90
2017-06-03T11:31:56.126Z,23.60
2017-06-03T11:34:24.416Z,23.80
2017-06-03T11:36:51.967Z,23.70
2017-06-03T11:39:19.503Z,24.40
2017-06-03T11:41:47.020Z,22.70
2017-06-03T11:44:14.572Z,19.50
2017-06-03T11:46:42.090Z,19.90
2017-06-03T11:49:10.375Z,21.00
2017-06-03T11:51:38.693Z,21.80
2017-06-03T11:54:06.225Z,21.80
2017-06-03T11:56:33.770Z,22.30
2017-06-03T11:59:02.049Z,22.60
2017-06-03T12:01:30.344Z,22.70
2017-06-03T12:03:57.878Z,22.70
2017-06-03T12:06:25.394Z,22.70
2017-06-03T12:08:52.933Z,24.30
2017-06-03T12:11:20.454Z,25.10
2017-06-03T12:13:47.973Z,25.90
2017-06-03T12:16:15.511Z,25.50
2017-06-03T12:18:43.038Z,25.10
2017-06-03T12:21:10.600Z,25.60
2017-06-03T12:23:38.124Z,24.70
2017-06-03T12:26:05.680Z,24.70
2017-06-03T12:28:33.214Z,25.10
2017-06-03T12:31:00.742Z,25.90
2017-06-03T12:33:28.286Z,26.00
2017-06-03T12:35:55.803Z,26.50
2017-06-03T12:38:23.329Z,26.10
2017-06-03T12:40:51.641Z,26.60
2017-06-03T12:43:19.214Z,26.00
2017-06-03T12:45:46.807Z,26.40
2017-06-03T12:48:14.344Z,25.80
2017-06-03T12:50:41.996Z,23.80
2017-06-03T12:53:09.566Z,24.40
2017-06-03T12:55:37.224Z,23.60
2017-06-03T12:58:04.821Z,23.30
2017-06-03T13:00:32.468Z,24.00
2017-06-03T13:03:00.112Z,23.90
2017-06-03T13:05:27.777Z,23.80
2017-06-03T13:07:55.463Z,24.10
2017-06-03T13:10:23.123Z,23.50
2017-06-03T13:12:50.868Z,21.90
2017-06-03T13:15:18.530Z,21.60
2017-06-03T13:17:46.126Z,21.60
2017-06-03T13:20:16.188Z,20.50
2017-06-03T13:22:43.819Z,20.60
2017-06-03T13:25:12.276Z,20.30
2017-06-03T13:27:39.902Z,20.30
2017-06-03T13:30:07.686Z,19.90
2017-06-03T13:32:35.287Z,20.80
2017-06-03T13:35:02.841Z,20.50
2017-06-03T13:37:30.362Z,20.40
2017-06-03T13:39:57.877Z,20.00
2017-06-03T13:42:25.412Z,20.60
2017-06-03T13:44:52.937Z,20.40
2017-06-03T13:47:20.487Z,20.60
2017-06-03T13:49:48.016Z,20.80
2017-06-03T13:52:15.630Z,21.50
2017-06-03T13:54:43.167Z,21.00
2017-06-03T13:57:11.463Z,20.80
2017-06-03T13:59:39.043Z,20.70
2017-06-03T14:02:06.565Z,21.60
2017-06-03T14:04:34.872Z,21.80
2017-06-03T14:07:02.390Z,21.70
2017-06-03T14:09:30.682Z,21.90
2017-06-03T14:11:58.983Z,21.70
2017-06-03T14:14:26.507Z,21.60
2017-06-03T14:16:54.814Z,22.10
2017-06-03T14:19:22.329Z,22.10
2017-06-03T14:21:49.847Z,21.10
2017-06-03T14:24:17.385Z,21.90
2017-06-03T14:26:44.914Z,20.90
2017-06-03T14:29:12.482Z,20.70
2017-06-03T14:31:40.003Z,21.90
2017-06-03T14:34:07.525Z,21.80
2017-06-03T14:36:35.058Z,22.20
2017-06-03T14:39:02.581Z,21.50
2017-06-03T14:41:30.146Z,21.70
2017-06-03T14:43:57.670Z,22.90
2017-06-03T14:46:25.190Z,21.40
2017-06-03T14:48:52.726Z,21.50
2017-06-03T14:51:20.244Z,21.50
2017-06-03T14:53:47.814Z,20.60
2017-06-03T14:56:15.410Z,20.90
2017-06-03T14:58:42.934Z,21.20
2017-06-03T15:01:10.498Z,20.80
2017-06-03T15:03:38.013Z,21.30
2017-06-03T15:06:05.564Z,21.30
2017-06-03T15:08:33.093Z,21.70
2017-06-03T15:11:00.611Z,22.10
2017-06-03T15:13:28.158Z,23.50
2017-06-03T15:15:55.675Z,23.40
2017-06-03T15:18:23.217Z,23.40
2017-06-03T15:23:27.855Z,22.60
2017-06-03T15:25:55.381Z,22.30
2017-06-03T15:28:22.906Z,21.40
2017-06-03T15:30:50.441Z,21.10
2017-06-03T15:33:17.964Z,20.40
2017-06-03T15:35:45.506Z,20.90
2017-06-03T15:38:13.019Z,20.10
2017-06-03T15:40:41.878Z,20.70
2017-06-03T15:43:09.500Z,21.90
2017-06-03T15:45:37.021Z,20.70
2017-06-03T15:48:05.321Z,22.30
2017-06-03T15:50:32.846Z,22.20
2017-06-03T15:53:00.380Z,21.70
2017-06-03T15:55:27.921Z,22.20
2017-06-03T15:57:55.435Z,21.60
2017-06-03T16:00:23.742Z,22.00
2017-06-03T16:02:51.267Z,22.40
2017-06-03T16:05:19.555Z,22.30
2017-06-03T16:07:47.099Z,22.20
2017-06-03T16:10:14.626Z,21.80
2017-06-03T16:12:42.189Z,21.90
2017-06-03T16:15:09.708Z,22.60
2017-06-03T16:17:37.997Z,23.10
2017-06-03T16:20:05.531Z,23.10
2017-06-03T16:22:33.175Z,23.20
2017-06-03T16:25:00.720Z,23.40
2017-06-03T16:27:28.238Z,23.10
2017-06-03T16:29:55.766Z,23.20
2017-06-03T16:32:23.299Z,23.10
2017-06-03T16:34:50.862Z,22.90
2017-06-03T16:37:18.402Z,22.80
2017-06-03T16:39:45.929Z,22.30
2017-06-03T16:42:14.222Z,22.60
2017-06-03T16:44:41.766Z,22.50
2017-06-03T16:47:10.055Z,22.40
2017-06-03T16:49:37.598Z,22.30
2017-06-03T16:52:05.890Z,23.40
2017-06-03T16:54:34.170Z,23.10
2017-06-03T16:57:02.482Z,23.10
2017-06-03T16:59:29.993Z,23.00
2017-06-03T17:01:58.565Z,23.00
2017-06-03T17:04:26.086Z,23.50
2017-06-03T17:06:53.595Z,22.80
2017-06-03T17:09:21.910Z,24.60
2017-06-03T17:11:49.430Z,24.50
2017-06-03T17:14:17.749Z,24.30
2017-06-03T17:16:45.261Z,23.90
2017-06-03T17:19:12.781Z,23.90
2017-06-03T17:21:40.316Z,24.30
2017-06-03T17:24:07.829Z,24.70
2017-06-03T17:26:35.410Z,24.40
2017-06-03T17:29:03.702Z,24.90
2017-06-03T17:31:31.985Z,25.10
2017-06-03T17:34:00.286Z,25.40
2017-06-03T17:36:27.803Z,25.30
2017-06-03T17:38:55.360Z,25.20
2017-06-03T17:41:22.874Z,25.10
2017-06-03T17:43:50.398Z,25.60
2017-06-03T17:46:18.707Z,26.20
2017-06-03T17:48:46.218Z,26.20
2017-06-03T17:51:13.766Z,26.10
2017-06-03T17:53:41.278Z,26.60
2017-06-03T17:56:08.790Z,26.80
2017-06-03T17:58:36.324Z,26.70
2017-06-03T18:01:03.846Z,26.90
2017-06-03T18:03:32.157Z,27.70
2017-06-03T18:05:59.674Z,27.70
2017-06-03T18:08:27.958Z,28.60
2017-06-03T18:10:56.259Z,28.50
2017-06-03T18:13:23.777Z,28.50
2017-06-03T18:15:51.323Z,29.40
2017-06-03T18:21:12.731Z,32.60
2017-06-03T18:23:45.850Z,34.90
2017-06-03T18:26:13.395Z,36.70
2017-06-03T18:28:40.918Z,38.20
2017-06-03T18:31:11.463Z,39.10
2017-06-03T18:33:39.008Z,39.20
2017-06-03T18:38:43.780Z,39.50
2017-06-03T18:41:11.303Z,40.60
2017-06-03T18:43:39.586Z,40.80
2017-06-03T18:46:08.233Z,41.00
2017-06-03T18:48:35.752Z,40.90
2017-06-03T18:51:03.302Z,41.50
2017-06-03T18:53:30.822Z,41.90
2017-06-03T18:55:58.355Z,42.20
2017-06-03T18:58:25.918Z,42.90
2017-06-03T19:00:53.447Z,43.30
2017-06-03T19:03:20.993Z,44.00
2017-06-03T19:05:49.283Z,45.00
2017-06-03T19:08:16.830Z,44.90
2017-06-03T19:10:45.132Z,45.90
2017-06-03T19:13:12.654Z,45.80
2017-06-03T19:15:40.205Z,45.90
2017-06-03T19:18:07.731Z,46.20
2017-06-03T19:20:35.254Z,46.60
2017-06-03T19:23:03.554Z,47.40
2017-06-03T19:25:31.070Z,47.20
2017-06-03T19:27:58.614Z,47.30
2017-06-03T19:30:26.138Z,48.00
2017-06-03T19:32:53.654Z,48.20
2017-06-03T19:35:21.187Z,48.70
2017-06-03T19:37:48.738Z,49.30
2017-06-03T19:40:16.304Z,49.20
2017-06-03T19:42:43.831Z,49.60
2017-06-03T19:45:11.363Z,50.00
2017-06-03T19:47:39.680Z,50.50
2017-06-03T19:50:07.202Z,50.50
2017-06-03T19:52:35.529Z,50.60
2017-06-03T19:55:03.089Z,50.80
2017-06-03T19:57:30.608Z,51.10
2017-06-03T19:59:58.919Z,52.40
2017-06-03T20:02:26.442Z,52.20
2017-06-03T20:04:54.764Z,52.90
2017-06-03T20:07:22.340Z,52.90
2017-06-03T20:09:49.865Z,54.00
2017-06-03T20:12:17.399Z,54.20
2017-06-03T20:14:44.918Z,54.30
2017-06-03T20:17:12.468Z,54.20
2017-06-03T20:19:39.998Z,54.70
2017-06-03T20:22:08.286Z,54.70
2017-06-03T20:24:35.830Z,54.60
2017-06-03T20:27:04.118Z,55.10
2017-06-03T20:29:32.434Z,55.50
2017-06-03T20:31:59.957Z,55.40
2017-06-03T20:34:28.246Z,56.50
2017-06-03T20:36:55.780Z,56.30
2017-06-03T20:39:24.061Z,57.70
2017-06-03T20:41:52.458Z,58.00
2017-06-03T20:44:20.002Z,57.90
2017-06-03T20:46:48.303Z,58.30
2017-06-03T20:49:15.839Z,58.20
2017-06-03T20:51:44.122Z,58.60
2017-06-03T20:54:12.530Z,58.60
2017-06-03T20:56:40.085Z,58.10
2017-06-03T20:59:07.603Z,58.30
2017-06-03T21:01:35.149Z,58.90
2017-06-03T21:04:02.674Z,59.10
2017-06-03T21:06:30.219Z,59.20
2017-06-03T21:08:59.291Z,59.80
2017-06-03T21:11:26.827Z,59.90
2017-06-03T21:13:54.358Z,60.00
2017-06-03T21:16:21.933Z,60.30
2017-06-03T21:18:49.511Z,60.60
2017-06-03T21:21:17.034Z,60.70
2017-06-03T21:23:44.562Z,60.80
2017-06-03T21:26:12.870Z,61.10
2017-06-03T21:28:40.394Z,61.10
2017-06-03T21:31:07.939Z,61.80
2017-06-03T21:33:35.453Z,61.80
2017-06-03T21:36:02.981Z,62.00
2017-06-03T21:38:31.294Z,62.20
2017-06-03T21:40:58.819Z,62.10
2017-06-03T21:43:27.150Z,62.30
2017-06-03T21:45:54.687Z,62.40
2017-06-03T21:48:22.370Z,62.60
2017-06-03T21:50:49.916Z,63.00
2017-06-03T21:53:17.504Z,62.90
2017-06-03T21:55:45.050Z,63.10
2017-06-03T21:58:12.578Z,63.60
2017-06-03T22:00:40.865Z,64.30
2017-06-03T22:03:09.167Z,64.50
2017-06-03T22:05:36.695Z,64.50
2017-06-03T22:08:05.007Z,64.70
2017-06-03T22:10:32.536Z,64.60
2017-06-03T22:13:00.062Z,64.60
2017-06-03T22:15:27.602Z,64.80
2017-06-03T22:17:55.134Z,65.10
2017-06-03T22:20:22.713Z,65.40
2017-06-03T22:22:50.229Z,65.60
2017-06-03T22:25:18.514Z,65.30
2017-06-03T22:27:46.827Z,65.10
2017-06-03T22:30:14.342Z,65.10
2017-06-03T22:32:42.651Z,64.80
2017-06-03T22:35:10.794Z,65.30
2017-06-03T22:37:39.122Z,66.00
2017-06-03T22:40:06.661Z,66.00
2017-06-03T22:42:34.226Z,66.00
2017-06-03T22:45:01.783Z,66.00
2017-06-03T22:47:29.310Z,66.10
2017-06-03T22:49:57.718Z,67.30
2017-06-03T22:52:25.278Z,66.40
2017-06-03T22:54:52.810Z,66.40
2017-06-03T22:57:21.126Z,66.50
2017-06-03T22:59:48.710Z,66.30
2017-06-03T23:02:16.233Z,66.30
2017-06-03T23:04:44.534Z,66.40
2017-06-03T23:07:12.067Z,66.30
2017-06-03T23:12:17.173Z,66.30
2017-06-03T23:14:44.743Z,66.30
2017-06-03T23:17:12.266Z,66.30
2017-06-03T23:19:40.770Z,66.30
2017-06-03T23:22:08.318Z,66.70
2017-06-03T23:24:35.878Z,66.30
2017-06-03T23:27:03.473Z,67.00
2017-06-03T23:29:30.998Z,66.30
2017-06-03T23:31:58.548Z,66.30
2017-06-03T23:34:26.104Z,66.30
2017-06-03T23:36:53.693Z,66.40
2017-06-03T23:39:21.253Z,66.30
2017-06-03T23:41:48.805Z,66.40
2017-06-03T23:44:16.349Z,66.40
2017-06-03T23:46:43.910Z,66.40
2017-06-03T23:49:11.435Z,66.40
2017-06-03T23:51:38.994Z,66.40
2017-06-03T23:54:06.517Z,66.40
2017-06-03T23:56:34.082Z,65.90
2017-06-03T23:59:01.622Z,66.70
